createdAt,value
2017-10-20T00:01:18.627Z,11.32
2017-10-20T00:03:46.237Z,11.31
2017-10-20T00:06:13.895Z,11.26
2017-10-20T00:08:41.502Z,11.20
2017-10-20T00:11:09.183Z,11.17
2017-10-20T00:13:36.888Z,11.12
2017-10-20T00:16:04.502Z,11.10
2017-10-20T00:18:32.185Z,11.09
2017-10-20T00:20:59.838Z,11.05
2017-10-20T00:23:27.504Z,11.04
2017-10-20T00:25:55.116Z,11.02
2017-10-20T00:28:22.840Z,11.00
2017-10-20T00:30:50.459Z,10.98
2017-10-20T00:33:18.129Z,10.97
2017-10-20T00:35:45.790Z,10.95
2017-10-20T00:38:13.399Z,10.91
2017-10-20T00:40:41.059Z,10.89
2017-10-20T00:43:08.719Z,10.90
2017-10-20T00:45:36.327Z,10.86
2017-10-20T00:48:04.004Z,10.84
2017-10-20T00:50:31.712Z,10.81
2017-10-20T00:52:59.318Z,10.81
2017-10-20T00:55:26.943Z,10.78
2017-10-20T00:57:54.660Z,10.75
2017-10-20T01:00:22.327Z,10.71
2017-10-20T01:02:49.931Z,10.67
2017-10-20T01:05:17.647Z,10.64
2017-10-20T01:07:45.316Z,10.61
2017-10-20T01:10:12.923Z,10.56
2017-10-20T01:12:40.596Z,10.54
2017-10-20T01:15:08.276Z,10.52
2017-10-20T01:17:35.883Z,10.51
2017-10-20T01:20:03.655Z,10.51
2017-10-20T01:22:31.302Z,10.51
2017-10-20T01:24:58.955Z,10.48
2017-10-20T01:27:26.637Z,10.51
2017-10-20T01:29:54.276Z,10.48
2017-10-20T01:32:21.916Z,10.52
2017-10-20T01:34:49.596Z,10.56
2017-10-20T01:37:17.228Z,10.57
2017-10-20T01:39:44.851Z,10.50
2017-10-20T01:42:12.563Z,10.50
2017-10-20T01:44:40.203Z,10.50
2017-10-20T01:47:07.835Z,10.48
2017-10-20T01:49:35.564Z,10.45
2017-10-20T01:52:03.212Z,10.44
2017-10-20T01:54:30.889Z,10.44
2017-10-20T01:56:58.563Z,10.43
2017-10-20T01:59:26.243Z,10.42
2017-10-20T02:01:53.883Z,10.39
2017-10-20T02:04:21.603Z,10.41
2017-10-20T02:06:49.264Z,10.41
2017-10-20T02:09:16.903Z,10.41
2017-10-20T02:11:44.612Z,10.40
2017-10-20T02:14:12.219Z,10.41
2017-10-20T02:16:40.555Z,10.40
2017-10-20T02:19:08.300Z,10.37
2017-10-20T02:21:35.911Z,10.36
2017-10-20T02:24:03.584Z,10.35
2017-10-20T02:26:31.307Z,10.36
2017-10-20T02:28:58.987Z,10.36
2017-10-20T02:31:26.664Z,10.38
2017-10-20T02:33:54.420Z,10.36
2017-10-20T02:36:22.024Z,10.38
2017-10-20T02:38:49.636Z,10.40
2017-10-20T02:41:17.288Z,10.44
2017-10-20T02:43:44.900Z,10.42
2017-10-20T02:46:12.514Z,10.42
2017-10-20T02:48:40.174Z,10.38
2017-10-20T02:51:07.803Z,10.37
2017-10-20T02:53:35.443Z,10.37
2017-10-20T02:56:03.179Z,10.37
2017-10-20T02:58:30.791Z,10.35
2017-10-20T03:00:58.415Z,10.32
2017-10-20T03:03:26.066Z,10.32
2017-10-20T03:05:53.730Z,10.30
2017-10-20T03:08:21.347Z,10.26
2017-10-20T03:10:49.102Z,10.22
2017-10-20T03:13:16.718Z,10.21
2017-10-20T03:15:44.327Z,10.17
2017-10-20T03:18:12.040Z,10.22
2017-10-20T03:20:39.643Z,10.25
2017-10-20T03:23:07.251Z,10.22
2017-10-20T03:25:34.955Z,10.14
2017-10-20T03:28:02.559Z,10.10
2017-10-20T03:30:30.167Z,10.05
2017-10-20T03:32:57.890Z,10.05
2017-10-20T03:35:25.495Z,10.05
2017-10-20T03:37:53.155Z,10.02
2017-10-20T03:40:20.799Z,9.97
2017-10-20T03:42:48.468Z,9.96
2017-10-20T03:45:16.135Z,9.91
2017-10-20T03:47:43.779Z,9.93
2017-10-20T03:50:11.386Z,9.91
2017-10-20T03:52:38.983Z,9.88
2017-10-20T03:55:06.632Z,9.83
2017-10-20T03:57:34.229Z,9.79
2017-10-20T04:00:01.843Z,9.74
2017-10-20T04:02:29.548Z,9.72
2017-10-20T04:04:57.198Z,9.68
2017-10-20T04:07:24.850Z,9.66
2017-10-20T04:09:52.496Z,9.64
2017-10-20T04:12:20.160Z,9.62
2017-10-20T04:14:47.771Z,9.59
2017-10-20T04:17:15.527Z,9.60
2017-10-20T04:19:43.199Z,9.57
2017-10-20T04:22:10.796Z,9.56
2017-10-20T04:24:38.539Z,9.55
2017-10-20T04:27:06.199Z,9.56
2017-10-20T04:29:33.916Z,9.56
2017-10-20T04:32:01.683Z,9.55
2017-10-20T04:34:29.332Z,9.54
2017-10-20T04:36:56.999Z,9.56
2017-10-20T04:39:24.652Z,9.60
2017-10-20T04:41:52.259Z,9.63
2017-10-20T04:44:19.855Z,9.61
2017-10-20T04:46:47.587Z,9.63
2017-10-20T04:49:15.247Z,9.65
2017-10-20T04:51:42.847Z,9.66
2017-10-20T04:54:10.503Z,9.68
2017-10-20T04:56:38.359Z,9.73
2017-10-20T04:59:06.027Z,9.80
2017-10-20T05:01:33.781Z,9.83
2017-10-20T05:04:01.440Z,9.91
2017-10-20T05:06:29.107Z,10.01
2017-10-20T05:08:56.766Z,10.14
2017-10-20T05:11:24.427Z,10.23
2017-10-20T05:13:52.027Z,10.42
2017-10-20T05:16:19.681Z,10.57
2017-10-20T05:18:47.287Z,10.74
2017-10-20T05:21:14.946Z,10.96
2017-10-20T05:23:43.031Z,11.19
2017-10-20T05:26:10.694Z,11.35
2017-10-20T05:28:38.311Z,11.52
2017-10-20T05:31:06.068Z,11.63
2017-10-20T05:33:33.726Z,11.60
2017-10-20T05:36:01.394Z,11.71
2017-10-20T05:38:29.154Z,11.71
2017-10-20T05:40:56.759Z,11.79
2017-10-20T05:43:24.424Z,11.81
2017-10-20T05:45:52.127Z,11.92
2017-10-20T05:48:19.732Z,12.05
2017-10-20T05:50:47.335Z,12.19
2017-10-20T05:53:15.043Z,12.36
2017-10-20T05:55:42.639Z,12.51
2017-10-20T06:25:24.854Z,13.45
2017-10-20T06:27:52.511Z,13.60
2017-10-20T06:30:20.120Z,13.62
2017-10-20T06:32:47.775Z,13.71
2017-10-20T06:35:15.442Z,13.78
2017-10-20T06:37:43.043Z,13.87
2017-10-20T06:40:10.784Z,13.99
2017-10-20T06:42:38.383Z,14.11
2017-10-20T06:45:06.053Z,14.27
2017-10-20T06:47:33.819Z,14.41
2017-10-20T06:50:01.444Z,14.37
2017-10-20T06:52:29.106Z,14.53
2017-10-20T06:54:56.828Z,14.76
2017-10-20T06:57:24.509Z,14.94
2017-10-20T06:59:52.167Z,15.16
2017-10-20T07:02:19.827Z,15.37
2017-10-20T07:04:47.430Z,15.50
2017-10-20T07:07:15.032Z,15.67
2017-10-20T07:09:42.710Z,15.82
2017-10-20T07:12:10.339Z,15.93
2017-10-20T07:14:37.943Z,16.06
2017-10-20T07:17:05.667Z,16.18
2017-10-20T07:19:36.879Z,16.33
2017-10-20T07:22:04.556Z,16.43
2017-10-20T07:24:32.271Z,16.52
2017-10-20T07:26:59.947Z,16.68
2017-10-20T07:29:27.628Z,16.79
2017-10-20T07:31:55.339Z,16.96
2017-10-20T07:34:22.943Z,17.11
2017-10-20T07:36:50.548Z,17.23
2017-10-20T07:39:18.218Z,17.36
2017-10-20T07:41:45.892Z,17.45
2017-10-20T07:44:13.490Z,17.63
2017-10-20T07:46:43.154Z,17.71
2017-10-20T07:49:10.755Z,17.82
2017-10-20T07:51:38.355Z,17.88
2017-10-20T07:54:06.062Z,17.96
2017-10-20T07:56:33.680Z,18.10
2017-10-20T07:59:01.279Z,18.21
2017-10-20T08:01:28.935Z,18.30
2017-10-20T08:03:56.526Z,18.43
2017-10-20T08:06:24.184Z,18.50
2017-10-20T08:08:51.919Z,18.68
2017-10-20T08:11:19.516Z,18.84
2017-10-20T08:13:47.111Z,19.02
2017-10-20T08:16:14.763Z,19.14
2017-10-20T08:34:37.099Z,20.42
2017-10-20T08:37:04.700Z,20.51
2017-10-20T08:39:32.398Z,20.58
2017-10-20T08:42:00.110Z,20.67
2017-10-20T08:44:27.711Z,20.76
2017-10-20T08:46:55.423Z,20.88
2017-10-20T08:49:23.187Z,20.91
2017-10-20T08:51:50.851Z,21.06
2017-10-20T08:54:18.516Z,21.22
2017-10-20T08:56:46.232Z,21.41
2017-10-20T08:59:13.892Z,21.58
2017-10-20T09:01:41.629Z,21.64
2017-10-20T09:04:09.352Z,21.77
2017-10-20T09:06:37.011Z,21.92
2017-10-20T09:09:04.680Z,21.95
2017-10-20T09:11:32.405Z,22.09
2017-10-20T09:14:00.069Z,22.24
2017-10-20T09:16:27.731Z,22.40
2017-10-20T09:18:55.502Z,22.47
2017-10-20T09:21:23.160Z,22.54
2017-10-20T09:23:50.835Z,22.55
2017-10-20T09:26:18.555Z,22.60
2017-10-20T09:28:46.208Z,22.69
2017-10-20T09:31:13.868Z,22.88
2017-10-20T09:33:41.587Z,23.01
2017-10-20T09:36:09.277Z,23.14
2017-10-20T09:38:36.947Z,23.18
2017-10-20T09:41:04.653Z,23.25
2017-10-20T09:43:32.320Z,23.38
2017-10-20T09:45:59.980Z,23.52
2017-10-20T09:48:27.691Z,23.63
2017-10-20T09:50:55.359Z,23.77
2017-10-20T09:53:23.016Z,23.86
2017-10-20T09:55:50.727Z,24.01
2017-10-20T09:58:18.387Z,24.14
2017-10-20T10:00:46.050Z,24.13
2017-10-20T10:03:13.851Z,24.20
2017-10-20T10:05:41.512Z,24.27
2017-10-20T10:08:09.176Z,24.33
2017-10-20T10:10:36.939Z,24.38
2017-10-20T10:13:04.651Z,24.50
2017-10-20T10:15:32.315Z,24.56
2017-10-20T10:18:00.025Z,24.61
2017-10-20T10:20:27.696Z,24.67
2017-10-20T10:22:55.411Z,24.65
2017-10-20T10:25:23.167Z,24.73
2017-10-20T10:27:50.827Z,24.80
2017-10-20T10:30:18.547Z,24.87
2017-10-20T10:32:46.296Z,24.87
2017-10-20T10:35:13.967Z,25.09
2017-10-20T10:37:41.655Z,25.28
2017-10-20T10:40:09.359Z,25.70
2017-10-20T10:42:37.019Z,26.36
2017-10-20T10:45:04.695Z,27.38
2017-10-20T10:47:32.395Z,28.37
2017-10-20T10:50:00.059Z,28.71
2017-10-20T10:52:27.725Z,28.40
2017-10-20T10:54:55.439Z,27.96
2017-10-20T10:57:22.973Z,27.73
2017-10-20T10:59:50.510Z,27.67
2017-10-20T11:02:18.086Z,27.48
2017-10-20T11:04:45.629Z,27.37
2017-10-20T11:07:25.170Z,27.35
2017-10-20T11:13:00.895Z,27.38
2017-10-20T11:15:28.477Z,27.70
2017-10-20T11:17:56.009Z,28.32
2017-10-20T11:20:23.594Z,29.45
2017-10-20T11:22:51.128Z,30.93
2017-10-20T11:25:18.661Z,32.10
2017-10-20T11:27:46.238Z,32.78
2017-10-20T11:30:13.778Z,33.90
2017-10-20T11:32:41.313Z,33.78
2017-10-20T11:35:08.898Z,33.89
2017-10-20T11:37:36.455Z,33.30
2017-10-20T11:40:03.993Z,33.43
2017-10-20T11:42:31.581Z,33.71
2017-10-20T11:44:59.137Z,34.81
2017-10-20T11:47:26.665Z,35.64
2017-10-20T11:49:54.241Z,35.84
2017-10-20T11:52:21.793Z,35.52
2017-10-20T11:54:49.349Z,34.07
2017-10-20T11:57:16.933Z,32.78
2017-10-20T11:59:44.478Z,31.48
2017-10-20T12:02:12.021Z,30.41
2017-10-20T12:04:39.613Z,29.53
2017-10-20T12:07:07.154Z,28.76
2017-10-20T12:09:34.697Z,28.26
2017-10-20T12:12:02.375Z,27.74
2017-10-20T12:14:29.918Z,27.47
2017-10-20T12:16:57.514Z,27.19
2017-10-20T12:19:25.087Z,26.90
2017-10-20T12:21:52.621Z,26.58
2017-10-20T12:24:20.168Z,26.47
2017-10-20T12:26:47.774Z,26.33
2017-10-20T12:29:15.309Z,26.24
2017-10-20T12:31:42.836Z,26.21
2017-10-20T12:34:10.558Z,26.13
2017-10-20T12:36:38.085Z,26.05
2017-10-20T12:39:05.617Z,25.94
2017-10-20T12:41:33.195Z,25.90
2017-10-20T12:44:00.725Z,25.86
2017-10-20T12:46:28.261Z,25.78
2017-10-20T12:48:55.829Z,25.79
2017-10-20T12:51:23.361Z,25.78
2017-10-20T12:53:50.946Z,25.65
2017-10-20T12:56:19.537Z,25.57
2017-10-20T12:58:47.065Z,25.62
2017-10-20T13:01:14.661Z,25.63
2017-10-20T13:03:42.245Z,25.60
2017-10-20T13:06:09.798Z,25.59
2017-10-20T13:08:37.338Z,25.62
2017-10-20T13:11:05.014Z,25.56
2017-10-20T13:13:32.642Z,25.50
2017-10-20T13:16:00.182Z,25.51
2017-10-20T13:18:27.762Z,25.47
2017-10-20T13:20:55.301Z,25.51
2017-10-20T13:23:22.974Z,25.53
2017-10-20T13:25:50.542Z,25.45
2017-10-20T13:28:18.081Z,25.46
2017-10-20T13:30:45.630Z,25.51
2017-10-20T13:33:13.212Z,25.43
2017-10-20T13:35:40.738Z,25.32
2017-10-20T13:38:08.284Z,25.31
2017-10-20T13:40:35.862Z,25.28
2017-10-20T13:43:03.413Z,25.28
2017-10-20T13:45:30.950Z,25.21
2017-10-20T13:47:58.526Z,25.20
2017-10-20T13:50:26.066Z,25.11
2017-10-20T13:52:53.612Z,25.08
2017-10-20T13:55:21.193Z,25.02
2017-10-20T13:57:48.734Z,24.92
2017-10-20T14:00:16.286Z,24.95
2017-10-20T14:02:43.918Z,24.83
2017-10-20T14:05:11.483Z,24.80
2017-10-20T14:07:39.041Z,24.77
2017-10-20T14:10:06.610Z,24.75
2017-10-20T14:12:34.146Z,24.61
2017-10-20T14:15:01.691Z,24.55
2017-10-20T14:17:29.266Z,24.50
2017-10-20T14:19:56.830Z,24.39
2017-10-20T14:22:24.379Z,24.30
2017-10-20T14:24:51.978Z,24.13
2017-10-20T14:27:19.536Z,24.01
2017-10-20T14:29:47.114Z,23.93
2017-10-20T14:32:14.726Z,23.86
2017-10-20T14:34:42.298Z,23.74
2017-10-20T14:37:09.851Z,23.55
2017-10-20T14:39:37.470Z,23.43
2017-10-20T14:42:05.007Z,23.25
2017-10-20T14:44:32.550Z,23.13
2017-10-20T14:47:00.150Z,23.02
2017-10-20T14:49:27.706Z,22.83
2017-10-20T14:51:55.246Z,22.75
2017-10-20T14:54:22.854Z,22.66
2017-10-20T14:56:50.398Z,22.50
2017-10-20T14:59:17.936Z,22.37
2017-10-20T15:01:45.522Z,22.24
2017-10-20T15:04:13.127Z,22.05
2017-10-20T15:06:40.679Z,21.88
2017-10-20T15:09:08.270Z,21.67
2017-10-20T15:11:35.934Z,21.49
2017-10-20T15:14:03.502Z,21.31
2017-10-20T15:16:31.075Z,21.09
2017-10-20T15:18:58.635Z,20.92
2017-10-20T15:21:26.186Z,20.71
2017-10-20T15:23:54.658Z,20.49
2017-10-20T15:26:22.271Z,20.31
2017-10-20T15:28:49.823Z,20.12
2017-10-20T15:31:17.401Z,19.91
2017-10-20T15:33:44.946Z,19.75
2017-10-20T15:36:12.500Z,19.61
2017-10-20T15:38:40.087Z,19.46
2017-10-20T15:41:07.667Z,19.32
2017-10-20T15:43:35.250Z,19.18
2017-10-20T15:46:02.834Z,19.04
2017-10-20T15:48:30.388Z,18.91
2017-10-20T15:50:57.934Z,18.77
2017-10-20T15:53:25.514Z,18.65
2017-10-20T15:55:53.086Z,18.53
2017-10-20T15:58:20.630Z,18.39
2017-10-20T16:00:48.210Z,18.31
2017-10-20T16:03:15.749Z,18.20
2017-10-20T16:05:43.295Z,18.08
2017-10-20T16:08:11.110Z,17.95
2017-10-20T16:10:38.683Z,17.83
2017-10-20T16:13:06.225Z,17.76
2017-10-20T16:15:33.802Z,17.70
2017-10-20T16:18:01.359Z,17.66
2017-10-20T16:20:28.958Z,17.57
2017-10-20T16:22:56.624Z,17.49
2017-10-20T16:25:24.230Z,17.42
2017-10-20T16:27:51.845Z,17.35
2017-10-20T16:30:19.499Z,17.28
2017-10-20T16:32:47.186Z,17.15
2017-10-20T16:35:14.799Z,17.01
2017-10-20T16:37:42.475Z,16.93
2017-10-20T16:40:10.139Z,16.85
2017-10-20T16:42:37.811Z,16.75
2017-10-20T16:45:05.470Z,16.68
2017-10-20T16:47:33.076Z,16.54
2017-10-20T16:50:00.744Z,16.48
2017-10-20T16:52:28.508Z,16.39
2017-10-20T16:54:56.118Z,16.36
2017-10-20T16:57:23.726Z,16.29
2017-10-20T16:59:51.534Z,16.28
2017-10-20T17:02:19.156Z,16.20
2017-10-20T17:04:47.158Z,16.17
2017-10-20T17:07:14.889Z,16.13
2017-10-20T17:09:42.491Z,16.06
2017-10-20T17:12:10.167Z,16.01
2017-10-20T17:14:37.889Z,15.93
2017-10-20T17:17:05.513Z,15.88
2017-10-20T17:19:33.276Z,15.84
2017-10-20T17:22:00.931Z,15.83
2017-10-20T17:24:28.599Z,15.82
2017-10-20T17:26:56.208Z,15.79
2017-10-20T17:29:23.924Z,15.78
2017-10-20T17:31:51.567Z,15.76
2017-10-20T17:34:19.176Z,15.73
2017-10-20T17:36:46.827Z,15.69
2017-10-20T17:39:14.436Z,15.65
2017-10-20T17:41:42.059Z,15.61
2017-10-20T17:44:09.724Z,15.62
2017-10-20T17:46:37.388Z,15.60
2017-10-20T17:49:05.042Z,15.59
2017-10-20T17:51:32.704Z,15.59
2017-10-20T17:54:01.452Z,15.62
2017-10-20T17:56:29.123Z,15.62
2017-10-20T17:58:56.825Z,15.66
2017-10-20T18:01:24.488Z,15.71
2017-10-20T18:03:52.095Z,15.73
2017-10-20T18:06:19.775Z,15.80
2017-10-20T18:08:47.439Z,15.81
2017-10-20T18:11:15.059Z,15.84
2017-10-20T18:13:42.756Z,15.88
2017-10-20T18:16:10.363Z,15.92
2017-10-20T18:18:38.028Z,15.94
2017-10-20T18:21:05.740Z,16.01
2017-10-20T18:23:33.357Z,16.02
2017-10-20T18:26:00.994Z,16.01
2017-10-20T18:28:28.664Z,16.02
2017-10-20T18:30:56.267Z,16.03
2017-10-20T18:33:23.879Z,16.06
2017-10-20T18:35:51.592Z,16.08
2017-10-20T18:38:19.268Z,16.09
2017-10-20T18:40:46.951Z,16.13
2017-10-20T18:43:14.638Z,16.17
2017-10-20T18:45:42.303Z,16.16
2017-10-20T18:48:09.918Z,16.19
2017-10-20T18:50:37.591Z,16.14
2017-10-20T18:53:05.208Z,16.10
2017-10-20T18:55:32.876Z,16.06
2017-10-20T18:58:00.528Z,16.02
2017-10-20T19:00:28.143Z,15.98
2017-10-20T19:02:55.812Z,15.89
2017-10-20T19:05:23.482Z,15.84
2017-10-20T19:07:51.095Z,15.76
2017-10-20T19:10:18.767Z,15.79
2017-10-20T19:12:46.427Z,15.83
2017-10-20T19:15:14.035Z,15.82
2017-10-20T19:17:41.711Z,15.92
2017-10-20T19:20:09.399Z,16.10
2017-10-20T19:22:37.012Z,16.22
2017-10-20T19:25:04.628Z,16.37
2017-10-20T19:27:32.292Z,16.39
2017-10-20T19:29:59.923Z,16.42
2017-10-20T19:32:27.536Z,16.45
2017-10-20T19:34:55.255Z,16.50
2017-10-20T19:37:22.944Z,16.47
2017-10-20T19:39:50.569Z,16.48
2017-10-20T19:42:18.233Z,16.42
2017-10-20T19:44:45.912Z,16.33
2017-10-20T19:47:13.540Z,16.19
2017-10-20T19:49:41.215Z,16.03
2017-10-20T19:52:08.823Z,15.92
2017-10-20T19:54:36.498Z,15.89
2017-10-20T19:57:04.163Z,15.85
2017-10-20T19:59:31.790Z,15.86
2017-10-20T20:01:59.403Z,15.73
2017-10-20T20:04:27.135Z,15.52
2017-10-20T20:06:54.800Z,15.36
2017-10-20T20:09:22.523Z,15.20
2017-10-20T20:11:50.243Z,15.11
2017-10-20T20:14:17.852Z,15.02
2017-10-20T20:16:45.462Z,14.91
2017-10-20T20:19:13.175Z,14.74
2017-10-20T20:21:40.834Z,14.53
2017-10-20T20:24:08.556Z,14.58
2017-10-20T20:26:36.272Z,14.59
2017-10-20T20:29:03.927Z,14.55
2017-10-20T20:31:34.059Z,14.49
2017-10-20T20:34:03.754Z,14.42
2017-10-20T20:36:31.415Z,14.35
2017-10-20T20:38:59.066Z,14.29
2017-10-20T20:41:26.719Z,14.19
2017-10-20T20:43:54.322Z,14.09
2017-10-20T20:46:22.061Z,13.95
2017-10-20T20:48:49.719Z,13.80
2017-10-20T20:51:17.379Z,13.72
2017-10-20T20:53:45.052Z,13.68
2017-10-20T20:56:12.704Z,13.62
2017-10-20T20:58:40.308Z,13.52
2017-10-20T21:01:07.924Z,13.49
2017-10-20T21:03:35.668Z,13.45
2017-10-20T21:06:03.287Z,13.39
2017-10-20T21:08:31.017Z,13.35
2017-10-20T21:10:58.767Z,13.35
2017-10-20T21:13:26.506Z,13.30
2017-10-20T21:15:54.215Z,13.24
2017-10-20T21:18:22.032Z,13.17
2017-10-20T21:20:49.722Z,13.13
2017-10-20T21:23:17.427Z,13.05
2017-10-20T21:25:45.127Z,12.97
2017-10-20T21:28:12.806Z,12.95
2017-10-20T21:30:40.499Z,12.90
2017-10-20T21:33:08.239Z,12.85
2017-10-20T21:35:35.879Z,12.80
2017-10-20T21:38:03.511Z,12.79
2017-10-20T21:40:31.200Z,12.76
2017-10-20T21:42:58.815Z,12.72
2017-10-20T21:45:26.439Z,12.68
2017-10-20T21:47:54.126Z,12.65
2017-10-20T21:50:21.807Z,12.64
2017-10-20T21:52:49.480Z,12.57
2017-10-20T21:55:17.161Z,12.56
2017-10-20T21:57:44.779Z,12.54
2017-10-20T22:00:12.403Z,12.47
2017-10-20T22:02:40.134Z,12.42
2017-10-20T22:05:07.803Z,12.45
2017-10-20T22:07:35.423Z,12.42
2017-10-20T22:10:03.096Z,12.41
2017-10-20T22:12:30.722Z,12.42
2017-10-20T22:14:58.350Z,12.39
2017-10-20T22:17:26.027Z,12.36
2017-10-20T22:19:53.655Z,12.30
2017-10-20T22:22:21.281Z,12.33
2017-10-20T22:24:48.955Z,12.39
2017-10-20T22:27:16.563Z,12.29
2017-10-20T22:29:44.240Z,12.20
2017-10-20T22:32:11.958Z,12.10
2017-10-20T22:34:39.579Z,12.09
2017-10-20T22:37:07.204Z,12.09
2017-10-20T22:39:34.883Z,12.02
2017-10-20T22:42:02.520Z,11.95
2017-10-20T22:44:30.147Z,11.92
2017-10-20T22:46:57.818Z,11.88
2017-10-20T22:49:25.436Z,11.86
2017-10-20T22:51:53.127Z,11.81
2017-10-20T22:54:20.798Z,11.75
2017-10-20T22:56:48.412Z,11.75
2017-10-20T22:59:16.018Z,11.74
2017-10-20T23:01:43.740Z,11.73
2017-10-20T23:04:11.363Z,11.68
2017-10-20T23:06:39.048Z,11.63
2017-10-20T23:09:06.780Z,11.59
2017-10-20T23:11:34.403Z,11.55
2017-10-20T23:14:02.034Z,11.55
2017-10-20T23:16:29.743Z,11.59
2017-10-20T23:18:57.363Z,11.59
2017-10-20T23:21:24.990Z,11.55
2017-10-20T23:23:52.699Z,11.58
2017-10-20T23:26:20.315Z,11.56
2017-10-20T23:28:47.941Z,11.51
2017-10-20T23:31:15.684Z,11.48
2017-10-20T23:33:43.306Z,11.42
2017-10-20T23:36:10.951Z,11.38
2017-10-20T23:38:38.680Z,11.35
2017-10-20T23:41:06.370Z,11.30
2017-10-20T23:43:34.010Z,11.29
2017-10-20T23:46:01.731Z,11.29
2017-10-20T23:48:29.356Z,11.25
2017-10-20T23:50:57.047Z,11.24
2017-10-20T23:53:24.724Z,11.20
2017-10-20T23:55:52.342Z,11.15
2017-10-20T23:58:19.952Z,11.14
